Time,TemperatureF,DewpointF,PressureIn,WindDirection,WindDirectionDegrees,WindSpeedMPH,WindSpeedGustMPH,Humidity,HourlyPrecipIn,Conditions,Clouds,dailyrainin,SolarRadiationWatts/m^2,SoftwareType,DateUTC
2013-05-03 00:00:00,44.2,41.0,30.14,WNW,287,0.0,2.0,88,0.00,,,0.00,0.0,meteohub,2013-05-03 04:00:00,
2013-05-03 00:01:00,44.2,41.0,30.14,WNW,287,0.0,2.0,88,0.00,,,0.00,0.0,meteohub,2013-05-03 04:01:00,
2013-05-03 00:02:00,44.2,41.0,30.14,WNW,287,0.0,2.0,88,0.00,,,0.00,0.0,meteohub,2013-05-03 04:02:00,
2013-05-03 00:07:00,44.2,41.0,30.15,WNW,287,1.0,2.0,88,0.00,,,0.00,0.0,meteohub,2013-05-03 04:07:00,
2013-05-03 00:12:00,44.1,40.8,30.15,WNW,287,0.0,1.0,88,0.00,,,0.00,0.0,meteohub,2013-05-03 04:12:00,
2013-05-03 00:17:00,43.9,40.6,30.14,WNW,287,1.0,1.0,88,0.00,,,0.00,0.0,meteohub,2013-05-03 04:17:00,
2013-05-03 00:22:00,43.7,40.5,30.14,WNW,287,0.0,1.0,88,0.00,,,0.00,0.0,meteohub,2013-05-03 04:22:00,
2013-05-03 00:27:00,43.5,40.5,30.14,WNW,287,1.0,1.0,89,0.00,,,0.00,0.0,meteohub,2013-05-03 04:27:00,
2013-05-03 00:32:00,43.3,40.3,30.14,WNW,287,0.0,1.0,89,0.00,,,0.00,0.0,meteohub,2013-05-03 04:32:00,
2013-05-03 00:37:00,43.3,40.3,30.15,WNW,287,1.0,1.0,89,0.00,,,0.00,0.0,meteohub,2013-05-03 04:37:00,
2013-05-03 00:42:00,43.2,40.1,30.15,WNW,287,1.0,2.0,89,0.00,,,0.00,0.0,meteohub,2013-05-03 04:42:00,
2013-05-03 00:47:00,43.3,40.3,30.16,WNW,284,1.0,2.0,89,0.00,,,0.00,0.0,meteohub,2013-05-03 04:47:00,
2013-05-03 00:52:00,43.5,40.5,30.16,WNW,284,1.0,3.0,89,0.00,,,0.00,0.0,meteohub,2013-05-03 04:52:00,
2013-05-03 00:57:00,43.7,40.5,30.16,WNW,285,1.0,3.0,88,0.00,,,0.00,0.0,meteohub,2013-05-03 04:57:00,
2013-05-03 01:02:00,43.9,40.6,30.16,WNW,285,0.0,2.0,88,0.00,,,0.00,0.0,meteohub,2013-05-03 05:02:00,
2013-05-03 01:07:00,43.9,40.3,30.16,WNW,285,1.0,2.0,87,0.00,,,0.00,0.0,meteohub,2013-05-03 05:07:00,
2013-05-03 01:12:00,44.1,40.5,30.16,WNW,285,2.0,2.0,87,0.00,,,0.00,0.0,meteohub,2013-05-03 05:12:00,
2013-05-03 01:17:00,44.1,40.1,30.16,WNW,285,1.0,2.0,86,0.00,,,0.00,0.0,meteohub,2013-05-03 05:17:00,
2013-05-03 01:22:00,43.9,39.9,30.16,WNW,285,1.0,2.0,86,0.00,,,0.00,0.0,meteohub,2013-05-03 05:22:00,
2013-05-03 01:27:00,43.7,39.7,30.16,WNW,298,2.0,2.0,86,0.00,,,0.00,0.0,meteohub,2013-05-03 05:27:00,
2013-05-03 01:32:00,43.5,39.6,30.16,WNW,298,1.0,2.0,86,0.00,,,0.00,0.0,meteohub,2013-05-03 05:32:00,
2013-05-03 01:37:00,43.3,39.2,30.16,WNW,298,0.0,2.0,85,0.00,,,0.00,0.0,meteohub,2013-05-03 05:37:00,
2013-05-03 01:42:00,43.3,39.4,30.16,WNW,298,1.0,3.0,86,0.00,,,0.00,0.0,meteohub,2013-05-03 05:42:00,
2013-05-03 01:47:00,43.2,39.2,30.15,WNW,298,1.0,3.0,86,0.00,,,0.00,0.0,meteohub,2013-05-03 05:47:00,
2013-05-03 01:52:00,43.2,39.2,30.16,WNW,298,0.0,2.0,86,0.00,,,0.00,0.0,meteohub,2013-05-03 05:52:00,
2013-05-03 01:57:00,43.2,39.2,30.16,WNW,298,0.0,2.0,86,0.00,,,0.00,0.0,meteohub,2013-05-03 05:57:00,
2013-05-03 02:02:00,43.0,39.4,30.15,WNW,298,1.0,2.0,87,0.00,,,0.00,0.0,meteohub,2013-05-03 06:02:00,
2013-05-03 02:07:00,43.0,39.0,30.15,WNW,298,1.0,2.0,86,0.00,,,0.00,0.0,meteohub,2013-05-03 06:07:00,
2013-05-03 02:12:00,42.8,38.8,30.15,WNW,298,1.0,2.0,86,0.00,,,0.00,0.0,meteohub,2013-05-03 06:12:00,
2013-05-03 02:17:00,42.6,38.7,30.15,WNW,298,1.0,2.0,86,0.00,,,0.00,0.0,meteohub,2013-05-03 06:17:00,
2013-05-03 02:22:00,42.6,38.7,30.15,WNW,298,1.0,2.0,86,0.00,,,0.00,0.0,meteohub,2013-05-03 06:22:00,
2013-05-03 02:27:00,42.6,38.7,30.14,WNW,298,1.0,2.0,86,0.00,,,0.00,0.0,meteohub,2013-05-03 06:27:00,
2013-05-03 02:32:00,42.4,38.5,30.14,WNW,298,0.0,2.0,86,0.00,,,0.00,0.0,meteohub,2013-05-03 06:32:00,
2013-05-03 02:37:00,42.4,38.8,30.15,WNW,298,0.0,2.0,87,0.00,,,0.00,0.0,meteohub,2013-05-03 06:37:00,
2013-05-03 02:42:00,42.3,38.7,30.14,WNW,298,0.0,2.0,87,0.00,,,0.00,0.0,meteohub,2013-05-03 06:42:00,
2013-05-03 02:47:00,42.1,38.5,30.15,WNW,298,0.0,2.0,87,0.00,,,0.00,0.0,meteohub,2013-05-03 06:47:00,
2013-05-03 02:52:00,41.9,38.3,30.14,WNW,298,0.0,1.0,87,0.00,,,0.00,0.0,meteohub,2013-05-03 06:52:00,
2013-05-03 02:57:00,41.7,38.1,30.14,WNW,298,0.0,1.0,87,0.00,,,0.00,0.0,meteohub,2013-05-03 06:57:00,
2013-05-03 03:02:00,41.5,38.3,30.14,WNW,298,0.0,1.0,88,0.00,,,0.00,0.0,meteohub,2013-05-03 07:02:00,
2013-05-03 03:07:00,41.5,38.3,30.14,WNW,298,0.0,1.0,88,0.00,,,0.00,0.0,meteohub,2013-05-03 07:07:00,
2013-05-03 03:12:00,41.4,38.3,30.14,WNW,298,0.0,1.0,89,0.00,,,0.00,0.0,meteohub,2013-05-03 07:12:00,
2013-05-03 03:17:00,41.2,38.1,30.14,WNW,298,0.0,1.0,89,0.00,,,0.00,0.0,meteohub,2013-05-03 07:17:00,
2013-05-03 03:22:00,41.0,37.9,30.14,WNW,298,1.0,1.0,89,0.00,,,0.00,0.0,meteohub,2013-05-03 07:22:00,
2013-05-03 03:27:00,40.8,38.1,30.14,WNW,298,0.0,1.0,90,0.00,,,0.00,0.0,meteohub,2013-05-03 07:27:00,
2013-05-03 03:32:00,40.6,37.9,30.14,WNW,298,0.0,1.0,90,0.00,,,0.00,0.0,meteohub,2013-05-03 07:32:00,
2013-05-03 03:37:00,40.6,37.9,30.14,WNW,298,0.0,1.0,90,0.00,,,0.00,0.0,meteohub,2013-05-03 07:37:00,
2013-05-03 03:43:00,40.5,37.8,30.14,WNW,298,0.0,1.0,90,0.00,,,0.00,0.0,meteohub,2013-05-03 07:43:00,
2013-05-03 03:48:00,40.3,37.6,30.14,WNW,298,0.0,1.0,90,0.00,,,0.00,0.0,meteohub,2013-05-03 07:48:00,
2013-05-03 03:53:00,40.3,37.6,30.14,WNW,298,0.0,1.0,90,0.00,,,0.00,0.0,meteohub,2013-05-03 07:53:00,
2013-05-03 03:58:00,40.1,37.4,30.14,WNW,298,0.0,0.0,90,0.00,,,0.00,0.0,meteohub,2013-05-03 07:58:00,
2013-05-03 04:03:00,39.9,37.6,30.14,WNW,298,0.0,1.0,91,0.00,,,0.00,0.0,meteohub,2013-05-03 08:03:00,
2013-05-03 04:08:00,39.9,37.6,30.14,WNW,298,0.0,1.0,91,0.00,,,0.00,0.0,meteohub,2013-05-03 08:08:00,
2013-05-03 04:13:00,39.7,37.4,30.14,WNW,298,0.0,1.0,91,0.00,,,0.00,0.0,meteohub,2013-05-03 08:13:00,
2013-05-03 04:18:00,39.6,37.2,30.14,WNW,298,1.0,0.0,91,0.00,,,0.00,0.0,meteohub,2013-05-03 08:18:00,
2013-05-03 04:23:00,39.6,37.2,30.14,WNW,298,0.0,1.0,91,0.00,,,0.00,0.0,meteohub,2013-05-03 08:23:00,
2013-05-03 04:28:00,39.4,37.0,30.14,WNW,298,0.0,1.0,91,0.00,,,0.00,0.0,meteohub,2013-05-03 08:28:00,
2013-05-03 04:33:00,39.4,37.2,30.14,WNW,298,0.0,1.0,92,0.00,,,0.00,0.0,meteohub,2013-05-03 08:33:00,
2013-05-03 04:38:00,39.2,37.0,30.14,WNW,298,0.0,1.0,92,0.00,,,0.00,0.0,meteohub,2013-05-03 08:38:00,
2013-05-03 04:43:00,39.0,36.7,30.14,WNW,298,0.0,1.0,91,0.00,,,0.00,0.0,meteohub,2013-05-03 08:43:00,
2013-05-03 04:48:00,39.0,36.9,30.14,WNW,298,0.0,1.0,92,0.00,,,0.00,0.0,meteohub,2013-05-03 08:48:00,
2013-05-03 04:53:00,39.0,36.9,30.14,WNW,298,0.0,1.0,92,0.00,,,0.00,0.0,meteohub,2013-05-03 08:53:00,
2013-05-03 04:58:00,38.8,36.7,30.14,WNW,298,1.0,1.0,92,0.00,,,0.00,0.0,meteohub,2013-05-03 08:58:00,
2013-05-03 05:03:00,38.7,36.9,30.14,WNW,298,0.0,1.0,93,0.00,,,0.00,0.0,meteohub,2013-05-03 09:03:00,
2013-05-03 05:08:00,38.7,36.9,30.14,WNW,298,0.0,2.0,93,0.00,,,0.00,0.0,meteohub,2013-05-03 09:08:00,
2013-05-03 05:13:00,38.5,36.7,30.14,WNW,298,0.0,2.0,93,0.00,,,0.00,0.0,meteohub,2013-05-03 09:13:00,
2013-05-03 05:18:00,38.5,36.7,30.14,WNW,298,0.0,2.0,93,0.00,,,0.00,0.0,meteohub,2013-05-03 09:18:00,
2013-05-03 05:23:00,38.1,36.3,30.14,WNW,298,0.0,1.0,93,0.00,,,0.00,0.0,meteohub,2013-05-03 09:23:00,
2013-05-03 05:28:00,38.1,36.3,30.14,WNW,298,0.0,1.0,93,0.00,,,0.00,0.0,meteohub,2013-05-03 09:28:00,
2013-05-03 05:33:00,37.9,36.1,30.14,WNW,298,1.0,1.0,93,0.00,,,0.00,0.0,meteohub,2013-05-03 09:33:00,
2013-05-03 05:38:00,37.9,36.3,30.14,WNW,298,0.0,1.0,94,0.00,,,0.00,0.0,meteohub,2013-05-03 09:38:00,
2013-05-03 05:43:00,37.8,36.1,30.14,WNW,298,0.0,1.0,94,0.00,,,0.00,0.0,meteohub,2013-05-03 09:43:00,
2013-05-03 05:48:00,37.8,36.1,30.14,WNW,298,1.0,1.0,94,0.00,,,0.00,0.0,meteohub,2013-05-03 09:48:00,
2013-05-03 05:53:00,37.6,36.0,30.14,WNW,298,0.0,2.0,94,0.00,,,0.00,0.0,meteohub,2013-05-03 09:53:00,
2013-05-03 05:58:00,37.6,36.0,30.14,WNW,298,0.0,2.0,94,0.00,,,0.00,0.0,meteohub,2013-05-03 09:58:00,
2013-05-03 06:03:00,37.6,36.0,30.14,WNW,298,0.0,1.0,94,0.00,,,0.00,0.0,meteohub,2013-05-03 10:03:00,
2013-05-03 06:08:00,37.6,36.0,30.14,WNW,298,0.0,1.0,94,0.00,,,0.00,0.0,meteohub,2013-05-03 10:08:00,
2013-05-03 06:13:00,37.6,36.3,30.14,WNW,298,0.0,2.0,95,0.00,,,0.00,0.0,meteohub,2013-05-03 10:13:00,
2013-05-03 06:18:00,37.6,36.3,30.14,WNW,298,0.0,2.0,95,0.00,,,0.00,0.0,meteohub,2013-05-03 10:18:00,
2013-05-03 06:23:00,37.6,36.3,30.15,WNW,298,1.0,1.0,95,0.00,,,0.00,0.0,meteohub,2013-05-03 10:23:00,
2013-05-03 06:28:00,37.6,36.3,30.15,WNW,298,0.0,2.0,95,0.00,,,0.00,7.0,meteohub,2013-05-03 10:28:00,
2013-05-03 06:33:00,37.8,36.5,30.15,WNW,298,1.0,2.0,95,0.00,,,0.00,12.0,meteohub,2013-05-03 10:33:00,
2013-05-03 06:38:00,37.9,36.9,30.15,NNW,341,1.0,2.0,96,0.00,,,0.00,18.0,meteohub,2013-05-03 10:38:00,
2013-05-03 06:43:00,38.1,37.0,30.15,NNW,341,0.0,2.0,96,0.00,,,0.00,26.0,meteohub,2013-05-03 10:43:00,
2013-05-03 06:48:00,38.5,37.2,30.15,NNW,341,0.0,2.0,95,0.00,,,0.00,33.0,meteohub,2013-05-03 10:48:00,
2013-05-03 06:53:00,38.8,37.6,30.15,NNW,341,0.0,2.0,95,0.00,,,0.00,44.0,meteohub,2013-05-03 10:53:00,
2013-05-03 06:58:00,39.4,38.1,30.15,NNW,341,1.0,1.0,95,0.00,,,0.00,49.0,meteohub,2013-05-03 10:58:00,
2013-05-03 07:03:00,39.9,38.7,30.15,NNW,341,0.0,1.0,95,0.00,,,0.00,60.0,meteohub,2013-05-03 11:03:00,
2013-05-03 07:08:00,40.1,38.3,30.15,NNW,341,0.0,1.0,93,0.00,,,0.00,67.0,meteohub,2013-05-03 11:08:00,
2013-05-03 07:13:00,40.3,38.5,30.15,NNW,341,0.0,1.0,93,0.00,,,0.00,65.0,meteohub,2013-05-03 11:13:00,
2013-05-03 07:18:00,40.3,38.1,30.15,NNW,341,0.0,1.0,92,0.00,,,0.00,69.0,meteohub,2013-05-03 11:18:00,
2013-05-03 07:23:00,40.5,38.3,30.15,NNW,341,0.0,1.0,92,0.00,,,0.00,70.0,meteohub,2013-05-03 11:23:00,
2013-05-03 07:28:00,40.6,38.5,30.15,NNW,341,0.0,1.0,92,0.00,,,0.00,97.0,meteohub,2013-05-03 11:28:00,
2013-05-03 07:33:00,41.0,38.7,30.15,NNW,341,0.0,1.0,91,0.00,,,0.00,146.0,meteohub,2013-05-03 11:33:00,
2013-05-03 07:38:00,41.4,39.0,30.15,NNW,341,0.0,1.0,91,0.00,,,0.00,160.0,meteohub,2013-05-03 11:38:00,
2013-05-03 07:44:00,42.1,39.4,30.15,NNW,341,0.0,1.0,90,0.00,,,0.00,171.0,meteohub,2013-05-03 11:44:00,
2013-05-03 07:49:00,43.0,39.9,30.15,NNE,13,1.0,1.0,89,0.00,,,0.00,186.0,meteohub,2013-05-03 11:49:00,
2013-05-03 07:54:00,43.5,39.9,30.15,NNE,15,1.0,2.0,87,0.00,,,0.00,204.0,meteohub,2013-05-03 11:54:00,
2013-05-03 07:59:00,43.7,39.7,30.15,NNE,25,2.0,3.0,86,0.00,,,0.00,214.0,meteohub,2013-05-03 11:59:00,
2013-05-03 08:04:00,44.1,39.9,30.16,ENE,66,3.0,3.0,85,0.00,,,0.00,234.0,meteohub,2013-05-03 12:04:00,
2013-05-03 08:09:00,44.2,40.1,30.15,NNE,22,1.0,3.0,85,0.00,,,0.00,257.0,meteohub,2013-05-03 12:09:00,
2013-05-03 08:14:00,44.8,40.3,30.16,ENE,63,1.0,4.0,84,0.00,,,0.00,264.0,meteohub,2013-05-03 12:14:00,
2013-05-03 08:19:00,45.5,40.6,30.15,North,9,1.0,4.0,83,0.00,,,0.00,316.0,meteohub,2013-05-03 12:19:00,
2013-05-03 08:24:00,46.0,40.8,30.14,North,5,2.0,3.0,82,0.00,,,0.00,216.0,meteohub,2013-05-03 12:24:00,
2013-05-03 08:29:00,46.2,41.7,30.14,NE,54,0.0,4.0,84,0.00,,,0.00,260.0,meteohub,2013-05-03 12:29:00,
2013-05-03 08:34:00,46.8,41.9,30.15,NE,34,2.0,4.0,83,0.00,,,0.00,329.0,meteohub,2013-05-03 12:34:00,
2013-05-03 08:39:00,47.1,41.5,30.15,NNE,26,2.0,6.0,81,0.00,,,0.00,346.0,meteohub,2013-05-03 12:39:00,
2013-05-03 08:44:00,47.7,42.1,30.15,NE,45,3.0,6.0,81,0.00,,,0.00,330.0,meteohub,2013-05-03 12:44:00,
2013-05-03 08:49:00,47.8,42.3,30.15,NW,317,1.0,6.0,81,0.00,,,0.00,183.0,meteohub,2013-05-03 12:49:00,
2013-05-03 08:54:00,48.2,42.3,30.15,NNE,21,1.0,4.0,80,0.00,,,0.00,148.0,meteohub,2013-05-03 12:54:00,
2013-05-03 08:59:00,47.7,41.7,30.14,North,350,3.0,4.0,80,0.00,,,0.00,213.0,meteohub,2013-05-03 12:59:00,
2013-05-03 09:04:00,47.8,41.9,30.14,North,355,1.0,4.0,80,0.00,,,0.00,195.0,meteohub,2013-05-03 13:04:00,
2013-05-03 09:09:00,47.8,42.3,30.14,NNE,28,1.0,4.0,81,0.00,,,0.00,213.0,meteohub,2013-05-03 13:09:00,
2013-05-03 09:14:00,48.9,42.4,30.14,NNW,339,1.0,4.0,78,0.00,,,0.00,287.0,meteohub,2013-05-03 13:14:00,
2013-05-03 09:19:00,48.7,42.4,30.14,North,0,3.0,4.0,79,0.00,,,0.00,555.0,meteohub,2013-05-03 13:19:00,
2013-05-03 09:24:00,49.6,43.0,30.14,NW,324,1.0,4.0,78,0.00,,,0.00,571.0,meteohub,2013-05-03 13:24:00,
2013-05-03 09:29:00,50.9,43.5,30.14,NW,325,1.0,4.0,76,0.00,,,0.00,606.0,meteohub,2013-05-03 13:29:00,
2013-05-03 09:34:00,50.9,43.3,30.14,NE,34,2.0,4.0,75,0.00,,,0.00,684.0,meteohub,2013-05-03 13:34:00,
2013-05-03 09:39:00,52.5,44.8,30.14,NE,39,3.0,4.0,75,0.00,,,0.00,686.0,meteohub,2013-05-03 13:39:00,
2013-05-03 09:44:00,52.3,43.5,30.14,NE,37,1.0,4.0,72,0.00,,,0.00,404.0,meteohub,2013-05-03 13:44:00,
2013-05-03 09:49:00,52.7,43.9,30.14,NW,304,2.0,4.0,72,0.00,,,0.00,610.0,meteohub,2013-05-03 13:49:00,
2013-05-03 09:54:00,54.1,44.6,30.14,North,11,4.0,5.0,70,0.00,,,0.00,584.0,meteohub,2013-05-03 13:54:00,
2013-05-03 09:59:00,53.4,44.6,30.14,NNW,346,2.0,5.0,72,0.00,,,0.00,566.0,meteohub,2013-05-03 13:59:00,
2013-05-03 10:04:00,54.1,44.6,30.13,WNW,296,1.0,5.0,70,0.00,,,0.00,598.0,meteohub,2013-05-03 14:04:00,
2013-05-03 10:09:00,55.0,44.6,30.13,NW,314,2.0,5.0,68,0.00,,,0.00,540.0,meteohub,2013-05-03 14:09:00,
2013-05-03 10:14:00,54.9,45.0,30.13,NW,325,1.0,5.0,69,0.00,,,0.00,520.0,meteohub,2013-05-03 14:14:00,
2013-05-03 10:19:00,55.2,44.8,30.13,North,5,2.0,5.0,68,0.00,,,0.00,552.0,meteohub,2013-05-03 14:19:00,
2013-05-03 10:24:00,55.8,45.3,30.13,WNW,296,1.0,7.0,68,0.00,,,0.00,654.0,meteohub,2013-05-03 14:24:00,
2013-05-03 10:29:00,57.4,45.7,30.13,NE,44,3.0,7.0,65,0.00,,,0.00,601.0,meteohub,2013-05-03 14:29:00,
2013-05-03 10:35:00,56.3,45.1,30.13,NE,40,3.0,7.0,66,0.00,,,0.00,350.0,meteohub,2013-05-03 14:35:00,
2013-05-03 10:40:00,56.7,45.5,30.13,NNE,24,2.0,6.0,66,0.00,,,0.00,315.0,meteohub,2013-05-03 14:40:00,
2013-05-03 10:45:00,56.8,45.1,30.13,North,350,3.0,5.0,65,0.00,,,0.00,633.0,meteohub,2013-05-03 14:45:00,
2013-05-03 10:50:00,56.8,44.8,30.13,North,355,2.0,5.0,64,0.00,,,0.00,840.0,meteohub,2013-05-03 14:50:00,
2013-05-03 10:55:00,58.1,45.1,30.12,North,10,5.0,5.0,62,0.00,,,0.00,608.0,meteohub,2013-05-03 14:55:00,
2013-05-03 11:00:00,57.6,45.1,30.12,NW,324,2.0,5.0,63,0.00,,,0.00,742.0,meteohub,2013-05-03 15:00:00,
2013-05-03 11:05:00,58.3,45.3,30.12,North,5,1.0,5.0,62,0.00,,,0.00,735.0,meteohub,2013-05-03 15:05:00,
2013-05-03 11:10:00,59.2,45.7,30.12,North,0,1.0,5.0,61,0.00,,,0.00,793.0,meteohub,2013-05-03 15:10:00,
2013-05-03 11:15:00,59.2,45.3,30.12,NW,306,2.0,4.0,60,0.00,,,0.00,782.0,meteohub,2013-05-03 15:15:00,
2013-05-03 11:20:00,59.2,45.3,30.12,WNW,291,3.0,4.0,60,0.00,,,0.00,814.0,meteohub,2013-05-03 15:20:00,
2013-05-03 11:25:00,60.3,45.9,30.12,NNW,342,2.0,4.0,59,0.00,,,0.00,758.0,meteohub,2013-05-03 15:25:00,
2013-05-03 11:30:00,60.6,45.3,30.12,NW,310,2.0,4.0,57,0.00,,,0.00,796.0,meteohub,2013-05-03 15:30:00,
2013-05-03 11:35:00,60.1,45.3,30.12,NW,318,1.0,5.0,58,0.00,,,0.00,766.0,meteohub,2013-05-03 15:35:00,
2013-05-03 11:40:00,61.2,45.9,30.12,NW,325,3.0,5.0,57,0.00,,,0.00,856.0,meteohub,2013-05-03 15:40:00,
2013-05-03 11:45:00,61.5,45.7,30.12,WNW,291,2.0,5.0,56,0.00,,,0.00,826.0,meteohub,2013-05-03 15:45:00,
2013-05-03 11:50:00,63.0,46.0,30.11,ENE,60,4.0,6.0,54,0.00,,,0.00,705.0,meteohub,2013-05-03 15:50:00,
2013-05-03 11:55:00,63.1,44.8,30.11,ENE,77,5.0,10.0,51,0.00,,,0.00,863.0,meteohub,2013-05-03 15:55:00,
2013-05-03 12:00:00,62.8,45.3,30.11,East,90,3.0,11.0,53,0.00,,,0.00,856.0,meteohub,2013-05-03 16:00:00,
2013-05-03 12:05:00,62.8,45.9,30.11,NE,54,6.0,11.0,54,0.00,,,0.00,571.0,meteohub,2013-05-03 16:05:00,
2013-05-03 12:10:00,62.8,45.3,30.11,ENE,72,3.0,12.0,53,0.00,,,0.00,921.0,meteohub,2013-05-03 16:10:00,
2013-05-03 12:15:00,64.2,45.1,30.11,East,101,3.0,12.0,50,0.00,,,0.00,809.0,meteohub,2013-05-03 16:15:00,
2013-05-03 12:20:00,65.1,46.0,30.11,ENE,59,12.0,12.0,50,0.00,,,0.00,967.0,meteohub,2013-05-03 16:20:00,
2013-05-03 12:25:00,64.2,45.7,30.10,ENE,78,3.0,14.0,51,0.00,,,0.00,1014.0,meteohub,2013-05-03 16:25:00,
2013-05-03 12:30:00,64.6,45.5,30.10,SE,129,3.0,14.0,50,0.00,,,0.00,1014.0,meteohub,2013-05-03 16:30:00,
2013-05-03 12:35:00,66.0,46.8,30.10,East,82,3.0,14.0,50,0.00,,,0.00,958.0,meteohub,2013-05-03 16:35:00,
2013-05-03 12:40:00,66.6,45.7,30.10,East,85,9.0,9.0,47,0.00,,,0.00,981.0,meteohub,2013-05-03 16:40:00,
2013-05-03 12:45:00,65.5,45.3,30.10,ESE,105,4.0,9.0,48,0.00,,,0.00,765.0,meteohub,2013-05-03 16:45:00,
2013-05-03 12:50:00,65.5,46.4,30.10,East,101,9.0,10.0,50,0.00,,,0.00,404.0,meteohub,2013-05-03 16:50:00,
2013-05-03 12:55:00,65.3,46.2,30.10,ENE,78,5.0,10.0,50,0.00,,,0.00,601.0,meteohub,2013-05-03 16:55:00,
2013-05-03 13:00:00,65.7,46.0,30.09,NE,48,1.0,10.0,49,0.00,,,0.00,659.0,meteohub,2013-05-03 17:00:00,
2013-05-03 13:05:00,66.2,45.9,30.09,ENE,78,9.0,9.0,48,0.00,,,0.00,432.0,meteohub,2013-05-03 17:05:00,
2013-05-03 13:10:00,65.8,46.2,30.09,ENE,59,5.0,11.0,49,0.00,,,0.00,490.0,meteohub,2013-05-03 17:10:00,
2013-05-03 13:15:00,65.8,46.2,30.09,East,84,8.0,11.0,49,0.00,,,0.00,605.0,meteohub,2013-05-03 17:15:00,
2013-05-03 13:20:00,65.7,46.6,30.09,ESE,105,5.0,11.0,50,0.00,,,0.00,679.0,meteohub,2013-05-03 17:20:00,
2013-05-03 13:25:00,65.8,46.2,30.09,ENE,61,2.0,11.0,49,0.00,,,0.00,571.0,meteohub,2013-05-03 17:25:00,
2013-05-03 13:30:00,65.7,46.0,30.09,East,90,5.0,11.0,49,0.00,,,0.00,431.0,meteohub,2013-05-03 17:30:00,
2013-05-03 13:35:00,65.5,46.9,30.09,NE,42,5.0,10.0,51,0.00,,,0.00,478.0,meteohub,2013-05-03 17:35:00,
2013-05-03 13:40:00,64.9,46.4,30.09,ENE,70,3.0,11.0,51,0.00,,,0.00,427.0,meteohub,2013-05-03 17:40:00,
2013-05-03 13:45:00,64.6,46.6,30.09,East,101,6.0,11.0,52,0.00,,,0.00,443.0,meteohub,2013-05-03 17:45:00,
2013-05-03 13:50:00,64.8,47.3,30.09,ENE,71,4.0,11.0,53,0.00,,,0.00,410.0,meteohub,2013-05-03 17:50:00,
2013-05-03 13:55:00,64.9,46.9,30.09,ENE,73,9.0,10.0,52,0.00,,,0.00,388.0,meteohub,2013-05-03 17:55:00,
2013-05-03 14:00:00,64.8,46.8,30.09,East,97,8.0,11.0,52,0.00,,,0.00,315.0,meteohub,2013-05-03 18:00:00,
2013-05-03 14:05:00,64.2,46.2,30.09,NNE,32,3.0,11.0,52,0.00,,,0.00,265.0,meteohub,2013-05-03 18:05:00,
2013-05-03 14:10:00,64.2,46.2,30.09,ENE,72,9.0,11.0,52,0.00,,,0.00,267.0,meteohub,2013-05-03 18:10:00,
2013-05-03 14:15:00,63.7,45.7,30.08,East,80,3.0,11.0,52,0.00,,,0.00,341.0,meteohub,2013-05-03 18:15:00,
2013-05-03 14:20:00,63.7,45.7,30.09,NE,49,6.0,11.0,52,0.00,,,0.00,403.0,meteohub,2013-05-03 18:20:00,
2013-05-03 14:25:00,64.0,46.0,30.09,ENE,69,8.0,10.0,52,0.00,,,0.00,258.0,meteohub,2013-05-03 18:25:00,
2013-05-03 14:30:00,64.0,45.5,30.09,East,94,5.0,11.0,51,0.00,,,0.00,169.0,meteohub,2013-05-03 18:30:00,
2013-05-03 14:35:00,64.0,45.5,30.08,East,93,8.0,11.0,51,0.00,,,0.00,148.0,meteohub,2013-05-03 18:35:00,
2013-05-03 14:40:00,63.9,45.9,30.08,ENE,76,8.0,11.0,52,0.00,,,0.00,153.0,meteohub,2013-05-03 18:40:00,
2013-05-03 14:45:00,63.7,46.2,30.08,ENE,66,9.0,11.0,53,0.00,,,0.00,202.0,meteohub,2013-05-03 18:45:00,
2013-05-03 14:50:00,63.1,45.1,30.08,SE,126,5.0,12.0,52,0.00,,,0.00,248.0,meteohub,2013-05-03 18:50:00,
2013-05-03 14:55:00,62.8,45.3,30.08,ESE,117,3.0,12.0,53,0.00,,,0.00,227.0,meteohub,2013-05-03 18:55:00,
2013-05-03 15:00:00,62.4,45.1,30.08,ENE,66,4.0,12.0,53,0.00,,,0.00,216.0,meteohub,2013-05-03 19:00:00,
2013-05-03 15:06:00,62.2,45.0,30.08,ENE,61,9.0,12.0,53,0.00,,,0.00,243.0,meteohub,2013-05-03 19:06:00,
2013-05-03 15:11:00,62.1,44.2,30.08,NE,53,8.0,11.0,52,0.00,,,0.00,258.0,meteohub,2013-05-03 19:11:00,
2013-05-03 15:16:00,62.1,44.8,30.08,ENE,57,7.0,13.0,53,0.00,,,0.00,257.0,meteohub,2013-05-03 19:16:00,
2013-05-03 15:20:00,62.2,45.0,30.07,East,80,6.0,13.0,53,0.00,,,0.00,294.0,meteohub,2013-05-03 19:20:00,
2013-05-03 15:26:00,63.3,44.4,30.07,East,85,7.0,13.0,50,0.00,,,0.00,714.0,meteohub,2013-05-03 19:26:00,
2013-05-03 15:31:00,63.5,44.6,30.07,East,84,10.0,14.0,50,0.00,,,0.00,682.0,meteohub,2013-05-03 19:31:00,
2013-05-03 15:36:00,63.3,44.4,30.07,ENE,67,7.0,14.0,50,0.00,,,0.00,721.0,meteohub,2013-05-03 19:36:00,
2013-05-03 15:41:00,63.1,44.2,30.07,NE,53,8.0,14.0,50,0.00,,,0.00,684.0,meteohub,2013-05-03 19:41:00,
2013-05-03 15:46:00,63.3,44.4,30.07,ENE,65,5.0,15.0,50,0.00,,,0.00,239.0,meteohub,2013-05-03 19:46:00,
2013-05-03 15:51:00,63.3,44.4,30.07,ENE,61,5.0,15.0,50,0.00,,,0.00,218.0,meteohub,2013-05-03 19:51:00,
2013-05-03 15:56:00,63.3,45.0,30.06,ENE,69,5.0,15.0,51,0.00,,,0.00,195.0,meteohub,2013-05-03 19:56:00,
2013-05-03 16:01:00,63.7,44.8,30.06,East,93,6.0,11.0,50,0.00,,,0.00,218.0,meteohub,2013-05-03 20:01:00,
2013-05-03 16:06:00,63.9,44.8,30.06,East,92,6.0,11.0,50,0.00,,,0.00,294.0,meteohub,2013-05-03 20:06:00,
2013-05-03 16:11:00,64.0,45.0,30.06,ENE,66,7.0,10.0,50,0.00,,,0.00,279.0,meteohub,2013-05-03 20:11:00,
2013-05-03 16:16:00,64.6,45.0,30.06,ENE,61,5.0,10.0,49,0.00,,,0.00,236.0,meteohub,2013-05-03 20:16:00,
2013-05-03 16:21:00,64.9,45.3,30.06,NE,42,5.0,10.0,49,0.00,,,0.00,142.0,meteohub,2013-05-03 20:21:00,
2013-05-03 16:26:00,64.9,45.3,30.06,NE,49,9.0,10.0,49,0.00,,,0.00,132.0,meteohub,2013-05-03 20:26:00,
2013-05-03 16:31:00,64.9,45.3,30.06,East,89,6.0,10.0,49,0.00,,,0.00,193.0,meteohub,2013-05-03 20:31:00,
2013-05-03 16:36:00,65.1,45.0,30.06,ENE,64,4.0,10.0,48,0.00,,,0.00,306.0,meteohub,2013-05-03 20:36:00,
2013-05-03 16:41:00,65.1,44.4,30.06,NE,49,10.0,13.0,47,0.00,,,0.00,659.0,meteohub,2013-05-03 20:41:00,
2013-05-03 16:46:00,65.5,44.8,30.06,ENE,69,5.0,14.0,47,0.00,,,0.00,186.0,meteohub,2013-05-03 20:46:00,
2013-05-03 16:51:00,65.1,44.4,30.06,East,80,5.0,14.0,47,0.00,,,0.00,102.0,meteohub,2013-05-03 20:51:00,
2013-05-03 16:56:00,63.9,44.2,30.06,ENE,77,4.0,11.0,49,0.00,,,0.00,97.0,meteohub,2013-05-03 20:56:00,
2013-05-03 17:01:00,63.0,44.1,30.05,NE,54,6.0,13.0,50,0.00,,,0.00,120.0,meteohub,2013-05-03 21:01:00,
2013-05-03 17:06:00,62.8,45.0,30.05,NE,55,5.0,13.0,52,0.00,,,0.00,139.0,meteohub,2013-05-03 21:06:00,
2013-05-03 17:11:00,62.8,45.0,30.05,ENE,76,4.0,13.0,52,0.00,,,0.00,176.0,meteohub,2013-05-03 21:11:00,
2013-05-03 17:16:00,63.0,45.1,30.05,ENE,65,8.0,9.0,52,0.00,,,0.00,204.0,meteohub,2013-05-03 21:16:00,
2013-05-03 17:21:00,62.8,45.3,30.05,ENE,61,11.0,11.0,53,0.00,,,0.00,209.0,meteohub,2013-05-03 21:21:00,
2013-05-03 17:26:00,63.0,45.1,30.04,ESE,117,3.0,13.0,52,0.00,,,0.00,209.0,meteohub,2013-05-03 21:26:00,
2013-05-03 17:31:00,63.1,45.1,30.04,East,84,7.0,13.0,52,0.00,,,0.00,199.0,meteohub,2013-05-03 21:31:00,
2013-05-03 17:36:00,63.3,45.0,30.04,East,88,7.0,13.0,51,0.00,,,0.00,190.0,meteohub,2013-05-03 21:36:00,
2013-05-03 17:41:00,63.3,45.0,30.04,ENE,74,8.0,14.0,51,0.00,,,0.00,192.0,meteohub,2013-05-03 21:41:00,
2013-05-03 17:46:00,63.9,45.3,30.04,East,84,8.0,14.0,51,0.00,,,0.00,162.0,meteohub,2013-05-03 21:46:00,
2013-05-03 17:51:00,64.4,46.4,30.04,East,82,3.0,14.0,52,0.00,,,0.00,125.0,meteohub,2013-05-03 21:51:00,
2013-05-03 17:56:00,64.8,45.7,30.04,ENE,67,5.0,12.0,50,0.00,,,0.00,116.0,meteohub,2013-05-03 21:56:00,
2013-05-03 18:01:00,65.1,46.6,30.04,ENE,67,7.0,12.0,51,0.00,,,0.00,125.0,meteohub,2013-05-03 22:01:00,
2013-05-03 18:06:00,66.0,46.8,30.04,ESE,107,5.0,13.0,50,0.00,,,0.00,88.0,meteohub,2013-05-03 22:06:00,
2013-05-03 18:11:00,66.4,46.6,30.04,East,88,6.0,14.0,49,0.00,,,0.00,72.0,meteohub,2013-05-03 22:11:00,
2013-05-03 18:16:00,66.6,46.2,30.04,ENE,78,7.0,14.0,48,0.00,,,0.00,98.0,meteohub,2013-05-03 22:16:00,
2013-05-03 18:21:00,66.7,46.4,30.04,ENE,78,4.0,14.0,48,0.00,,,0.00,67.0,meteohub,2013-05-03 22:21:00,
2013-05-03 18:26:00,66.9,46.6,30.04,ESE,106,8.0,13.0,48,0.00,,,0.00,95.0,meteohub,2013-05-03 22:26:00,
2013-05-03 18:31:00,66.9,47.1,30.04,ENE,63,2.0,13.0,49,0.00,,,0.00,58.0,meteohub,2013-05-03 22:31:00,
2013-05-03 18:36:00,67.1,47.3,30.04,ENE,74,8.0,13.0,49,0.00,,,0.00,62.0,meteohub,2013-05-03 22:36:00,
2013-05-03 18:41:00,67.1,47.8,30.04,ENE,76,4.0,12.0,50,0.00,,,0.00,93.0,meteohub,2013-05-03 22:41:00,
2013-05-03 18:46:00,67.5,48.2,30.04,SE,127,5.0,12.0,50,0.00,,,0.00,67.0,meteohub,2013-05-03 22:46:00,
2013-05-03 18:51:00,67.6,48.4,30.04,East,82,5.0,12.0,50,0.00,,,0.00,63.0,meteohub,2013-05-03 22:51:00,
2013-05-03 18:56:00,67.6,48.4,30.04,East,94,7.0,11.0,50,0.00,,,0.00,155.0,meteohub,2013-05-03 22:56:00,
2013-05-03 19:01:00,67.6,48.4,30.04,ESE,119,1.0,9.0,50,0.00,,,0.00,72.0,meteohub,2013-05-03 23:01:00,
2013-05-03 19:07:00,67.6,48.4,30.04,ESE,107,7.0,9.0,50,0.00,,,0.00,121.0,meteohub,2013-05-03 23:07:00,
2013-05-03 19:12:00,67.8,48.0,30.04,ESE,111,4.0,9.0,49,0.00,,,0.00,47.0,meteohub,2013-05-03 23:12:00,
2013-05-03 19:17:00,67.8,48.6,30.04,SE,139,1.0,13.0,50,0.00,,,0.00,39.0,meteohub,2013-05-03 23:17:00,
2013-05-03 19:22:00,67.5,48.7,30.04,ESE,110,2.0,13.0,51,0.00,,,0.00,40.0,meteohub,2013-05-03 23:22:00,
2013-05-03 19:27:00,67.5,48.7,30.04,ENE,71,3.0,13.0,51,0.00,,,0.00,40.0,meteohub,2013-05-03 23:27:00,
2013-05-03 19:32:00,67.5,49.3,30.04,East,88,2.0,10.0,52,0.00,,,0.00,37.0,meteohub,2013-05-03 23:32:00,
2013-05-03 19:37:00,67.3,49.1,30.04,ESE,113,3.0,10.0,52,0.00,,,0.00,35.0,meteohub,2013-05-03 23:37:00,
2013-05-03 19:42:00,67.1,48.9,30.04,SE,142,1.0,10.0,52,0.00,,,0.00,32.0,meteohub,2013-05-03 23:42:00,
2013-05-03 19:47:00,66.9,49.3,30.04,SSE,159,3.0,8.0,53,0.00,,,0.00,30.0,meteohub,2013-05-03 23:47:00,
2013-05-03 19:52:00,66.7,48.6,30.04,East,90,5.0,7.0,52,0.00,,,0.00,46.0,meteohub,2013-05-03 23:52:00,
2013-05-03 19:57:00,66.6,48.9,30.05,East,82,2.0,8.0,53,0.00,,,0.00,28.0,meteohub,2013-05-03 23:57:00,
2013-05-03 20:02:00,66.4,48.7,30.05,SSE,156,5.0,8.0,53,0.00,,,0.00,25.0,meteohub,2013-05-04 00:02:00,
2013-05-03 20:07:00,66.0,48.9,30.05,ESE,103,1.0,8.0,54,0.00,,,0.00,23.0,meteohub,2013-05-04 00:07:00,
2013-05-03 20:12:00,65.8,49.3,30.05,East,97,3.0,6.0,55,0.00,,,0.00,21.0,meteohub,2013-05-04 00:12:00,
2013-05-03 20:17:00,65.7,49.1,30.05,ESE,108,1.0,7.0,55,0.00,,,0.00,19.0,meteohub,2013-05-04 00:17:00,
2013-05-03 20:22:00,65.5,48.9,30.05,East,80,6.0,8.0,55,0.00,,,0.00,16.0,meteohub,2013-05-04 00:22:00,
2013-05-03 20:27:00,65.1,49.1,30.05,SSE,157,1.0,8.0,56,0.00,,,0.00,12.0,meteohub,2013-05-04 00:27:00,
2013-05-03 20:32:00,64.9,48.9,30.05,ESE,103,1.0,8.0,56,0.00,,,0.00,9.0,meteohub,2013-05-04 00:32:00,
2013-05-03 20:37:00,64.6,48.6,30.05,SE,130,2.0,8.0,56,0.00,,,0.00,5.0,meteohub,2013-05-04 00:37:00,
2013-05-03 20:42:00,64.2,48.2,30.05,ESE,113,2.0,8.0,56,0.00,,,0.00,0.0,meteohub,2013-05-04 00:42:00,
2013-05-03 20:47:00,64.0,48.9,30.06,East,95,2.0,7.0,58,0.00,,,0.00,0.0,meteohub,2013-05-04 00:47:00,
2013-05-03 20:52:00,63.7,48.6,30.06,SE,133,1.0,7.0,58,0.00,,,0.00,0.0,meteohub,2013-05-04 00:52:00,
2013-05-03 20:57:00,63.1,48.6,30.06,ESE,111,2.0,6.0,59,0.00,,,0.00,0.0,meteohub,2013-05-04 00:57:00,
2013-05-03 21:02:00,62.8,48.2,30.06,East,84,1.0,6.0,59,0.00,,,0.00,0.0,meteohub,2013-05-04 01:02:00,
2013-05-03 21:07:00,62.4,48.4,30.06,East,89,0.0,8.0,60,0.00,,,0.00,0.0,meteohub,2013-05-04 01:07:00,
2013-05-03 21:12:00,62.1,48.0,30.06,ESE,113,3.0,8.0,60,0.00,,,0.00,0.0,meteohub,2013-05-04 01:12:00,
2013-05-03 21:17:00,62.1,48.4,30.06,ESE,123,0.0,6.0,61,0.00,,,0.00,0.0,meteohub,2013-05-04 01:17:00,
2013-05-03 21:22:00,61.9,48.7,30.06,ESE,103,2.0,6.0,62,0.00,,,0.00,0.0,meteohub,2013-05-04 01:22:00,
2013-05-03 21:27:00,61.5,48.4,30.06,SE,140,0.0,6.0,62,0.00,,,0.00,0.0,meteohub,2013-05-04 01:27:00,
2013-05-03 21:32:00,61.3,48.6,30.07,SE,127,2.0,6.0,63,0.00,,,0.00,0.0,meteohub,2013-05-04 01:32:00,
2013-05-03 21:37:00,61.2,48.9,30.07,East,80,3.0,6.0,64,0.00,,,0.00,0.0,meteohub,2013-05-04 01:37:00,
2013-05-03 21:42:00,61.0,48.7,30.07,East,91,1.0,4.0,64,0.00,,,0.00,0.0,meteohub,2013-05-04 01:42:00,
2013-05-03 21:47:00,60.8,48.6,30.07,East,98,2.0,4.0,64,0.00,,,0.00,0.0,meteohub,2013-05-04 01:47:00,
2013-05-03 21:52:00,60.6,48.7,30.08,East,99,2.0,5.0,65,0.00,,,0.00,0.0,meteohub,2013-05-04 01:52:00,
2013-05-03 21:57:00,60.6,48.7,30.07,East,88,1.0,5.0,65,0.00,,,0.00,0.0,meteohub,2013-05-04 01:57:00,
2013-05-03 22:02:00,60.6,49.3,30.08,East,80,1.0,5.0,66,0.00,,,0.00,0.0,meteohub,2013-05-04 02:02:00,
2013-05-03 22:07:00,60.6,48.7,30.08,ENE,69,1.0,3.0,65,0.00,,,0.00,0.0,meteohub,2013-05-04 02:07:00,
2013-05-03 22:12:00,60.1,47.5,30.08,NE,53,0.0,3.0,63,0.00,,,0.00,0.0,meteohub,2013-05-04 02:12:00,
2013-05-03 22:18:00,58.8,46.6,30.08,ENE,73,1.0,3.0,64,0.00,,,0.00,0.0,meteohub,2013-05-04 02:18:00,
2013-05-03 22:23:00,57.0,45.9,30.08,NE,44,0.0,3.0,66,0.00,,,0.00,0.0,meteohub,2013-05-04 02:23:00,
2013-05-03 22:28:00,55.9,45.9,30.08,NE,44,0.0,2.0,69,0.00,,,0.00,0.0,meteohub,2013-05-04 02:28:00,
2013-05-03 22:33:00,55.2,46.8,30.08,East,82,0.0,2.0,73,0.00,,,0.00,0.0,meteohub,2013-05-04 02:33:00,
2013-05-03 22:38:00,55.6,48.2,30.08,SE,146,0.0,2.0,76,0.00,,,0.00,0.0,meteohub,2013-05-04 02:38:00,
2013-05-03 22:43:00,56.1,48.4,30.08,SE,138,1.0,3.0,75,0.00,,,0.00,0.0,meteohub,2013-05-04 02:43:00,
2013-05-03 22:48:00,56.8,48.9,30.08,SSE,154,0.0,3.0,75,0.00,,,0.00,0.0,meteohub,2013-05-04 02:48:00,
2013-05-03 22:53:00,57.4,49.1,30.08,SE,146,1.0,3.0,74,0.00,,,0.00,0.0,meteohub,2013-05-04 02:53:00,
2013-05-03 22:58:00,57.7,49.1,30.08,SE,141,0.0,3.0,73,0.00,,,0.00,0.0,meteohub,2013-05-04 02:58:00,
2013-05-03 23:03:00,58.3,49.6,30.08,SE,134,0.0,3.0,73,0.00,,,0.00,0.0,meteohub,2013-05-04 03:03:00,
2013-05-03 23:08:00,58.3,49.3,30.08,East,93,2.0,3.0,72,0.00,,,0.00,0.0,meteohub,2013-05-04 03:08:00,
2013-05-03 23:13:00,57.6,47.5,30.08,ENE,78,1.0,2.0,69,0.00,,,0.00,0.0,meteohub,2013-05-04 03:13:00,
2013-05-03 23:18:00,55.2,45.7,30.08,NNE,18,1.0,3.0,70,0.00,,,0.00,0.0,meteohub,2013-05-04 03:18:00,
2013-05-03 23:23:00,53.2,45.1,30.09,NNE,18,1.0,3.0,74,0.00,,,0.00,0.0,meteohub,2013-05-04 03:23:00,
2013-05-03 23:28:00,52.2,45.5,30.09,NNE,18,1.0,3.0,78,0.00,,,0.00,0.0,meteohub,2013-05-04 03:28:00,
2013-05-03 23:33:00,51.4,45.5,30.09,NNE,18,1.0,2.0,80,0.00,,,0.00,0.0,meteohub,2013-05-04 03:33:00,
2013-05-03 23:38:00,51.3,46.0,30.09,NE,49,0.0,2.0,82,0.00,,,0.00,0.0,meteohub,2013-05-04 03:38:00,
2013-05-03 23:43:00,52.0,46.6,30.08,NE,49,1.0,2.0,82,0.00,,,0.00,0.0,meteohub,2013-05-04 03:43:00,
2013-05-03 23:48:00,52.7,47.1,30.08,NE,49,1.0,2.0,81,0.00,,,0.00,0.0,meteohub,2013-05-04 03:48:00,
2013-05-03 23:53:00,53.4,46.8,30.08,East,84,1.0,2.0,78,0.00,,,0.00,0.0,meteohub,2013-05-04 03:53:00,
2013-05-03 23:58:00,54.0,46.9,30.08,East,84,0.0,3.0,77,0.00,,,0.00,0.0,meteohub,2013-05-04 03:58:00,